Search for airport 
image banner adimage banner ad
image banner ad

DNIM - Owerri/Sam Mbakwe

Located in Owerri, Nigeria

ICAO - DNIM, IATA - QOW

Data provided by Airmate  

General information

Coordinates: N5°25'38" E7°12'22"
Elevation is 374 feet MSL.
 
Rated:
View ratings: [VIEW]


View others Airports in Imo

Operational data

Open for public use
Current time UTC:
Current local time:
Weather
TAF: TAF DNIM 121700Z 1218/1324 00000KT 9999 SCT010 PROB30 TEMPO 1305/1307 5000 BR BECMG 1308/1310 30010KT BKN011
View NOTAMs / SUP AIP / TFR affecting this airport [VIEW]
Communications frequencies: [VIEW]

Runways:

RWY identifierQFULength (ft)Width (ft)SurfaceLDA (ft)
17167°8858148ASP
35347°8858148

Airport contact information

Address: Owerri Nigeria

Satellite view of DNIM